Etusivu
METAR-TAF:

METAR-TAF

Lentoasemat :

Sidney-Richland Municipal Airport

Sidney, Montana, Yhdysvallat

Leveyspiiri: 47-42N, Pituuspiiri: 104-12W, korkeus merenpinnasta: 605 m

Tämänhetkinen sää

Tämä raportti tehtiin 32 minuuttia sitten, kello 09.56 UTC
tyyntä
Lämpötila 13°C
Kosteus 100%
Ilmanpaine 1020 hPa
Näkyvyys: 16.1 km
Muutamia pilviä 8000 ft:n korkeudessa
Hajanaisia pilviä 9500 ft:n korkeudessa

METAR: KSDY 190956Z AUTO 00000KT 10SM FEW080 SCT095 13/13 A3012 RMK AO2 SLP202 T01330128

Aika: 04:28 (10:28 UTC)

Sääennuste

Tämä raportti tehtiin 5 tuntia ja 8 minuuttia sitten, kello 05.20 UTC
Ennuste voimassa 19. päivästä klo 06 UTC - 20. päivään klo 06 UTC
Tuuli 6 kn eri suunnista
Näkyvyys: 10 km
Hajonneita pilviä 10000 ft:n korkeudessa

TAF: KSDY 190520Z 1906/2006 VRB06KT P6SM BKN100

Säähavainnot ja -ennusteet yli 4000 lentoasemalta (METAR- ja TAF-raportit).

Käytössä olevat sääasemat on merkitty karttaan keltaisilla ja punaisilla pisteillä.

Aseta hiiri pisteen päälle nähdäksesi sääaseman nimen.

Klikkaa sitten nähdäksesi säähavainnot ja -ennusteet.

Kartan vaihtaminen: klikkaa mustalla rastilla varustettuja vihreitä pisteitä, niin voit zoomata sisään; viivalla varustettua vihreää pistettä, niin voit zoomata ulos tai vihreitä nuolia, niin pääset viereisille kartoille.


METAR-TAF: